sensor_id;sensor_type;location;lat;lon;timestamp;pressure;altitude;pressure_sealevel;temperature;humidity
27294;BME280;14785;52.556;13.430;2022-08-19T00:00:16;100216.22;;;22.65;100.00
27294;BME280;14785;52.556;13.430;2022-08-19T00:02:42;100203.91;;;22.91;100.00
27294;BME280;14785;52.556;13.430;2022-08-19T00:05:09;100202.91;;;22.97;100.00
27294;BME280;14785;52.556;13.430;2022-08-19T00:07:35;100207.75;;;22.95;100.00
27294;BME280;14785;52.556;13.430;2022-08-19T00:10:00;100210.97;;;22.92;100.00
27294;BME280;14785;52.556;13.430;2022-08-19T00:12:26;100213.91;;;22.74;100.00
27294;BME280;14785;52.556;13.430;2022-08-19T00:14:51;100221.50;;;23.05;100.00
27294;BME280;14785;52.556;13.430;2022-08-19T00:17:19;100221.00;;;23.08;100.00
27294;BME280;14785;52.556;13.430;2022-08-19T00:19:45;100212.75;;;23.19;100.00
27294;BME280;14785;52.556;13.430;2022-08-19T00:22:10;100225.13;;;23.27;100.00
27294;BME280;14785;52.556;13.430;2022-08-19T00:24:35;100239.97;;;22.58;100.00
27294;BME280;14785;52.556;13.430;2022-08-19T00:27:02;100245.97;;;23.10;100.00
27294;BME280;14785;52.556;13.430;2022-08-19T00:29:28;100227.44;;;23.78;100.00
27294;BME280;14785;52.556;13.430;2022-08-19T00:31:53;100212.66;;;24.12;100.00
27294;BME280;14785;52.556;13.430;2022-08-19T00:34:21;100204.06;;;24.47;100.00
27294;BME280;14785;52.556;13.430;2022-08-19T00:36:48;100210.41;;;24.57;100.00
27294;BME280;14785;52.556;13.430;2022-08-19T00:39:16;100195.03;;;24.41;100.00
27294;BME280;14785;52.556;13.430;2022-08-19T00:41:43;100189.75;;;24.61;100.00
27294;BME280;14785;52.556;13.430;2022-08-19T00:44:16;100182.50;;;24.67;100.00
27294;BME280;14785;52.556;13.430;2022-08-19T00:46:44;100183.63;;;24.71;100.00
27294;BME280;14785;52.556;13.430;2022-08-19T00:49:15;100178.47;;;24.74;100.00
27294;BME280;14785;52.556;13.430;2022-08-19T00:51:45;100173.44;;;24.61;100.00
27294;BME280;14785;52.556;13.430;2022-08-19T00:54:12;100168.84;;;24.62;100.00
27294;BME280;14785;52.556;13.430;2022-08-19T00:56:38;100177.13;;;24.45;100.00
27294;BME280;14785;52.556;13.430;2022-08-19T00:59:04;100196.25;;;24.02;100.00
27294;BME280;14785;52.556;13.430;2022-08-19T01:01:35;100218.84;;;23.10;100.00
27294;BME280;14785;52.556;13.430;2022-08-19T01:04:01;100219.19;;;23.30;100.00
27294;BME280;14785;52.556;13.430;2022-08-19T01:06:26;100211.00;;;23.68;100.00
27294;BME280;14785;52.556;13.430;2022-08-19T01:08:54;100198.75;;;24.08;100.00
27294;BME280;14785;52.556;13.430;2022-08-19T01:11:20;100187.00;;;24.24;100.00
27294;BME280;14785;52.556;13.430;2022-08-19T01:13:46;100191.22;;;24.42;100.00
27294;BME280;14785;52.556;13.430;2022-08-19T01:16:12;100181.59;;;24.56;100.00
27294;BME280;14785;52.556;13.430;2022-08-19T01:18:42;100190.19;;;24.48;100.00
27294;BME280;14785;52.556;13.430;2022-08-19T01:21:37;100195.31;;;24.71;100.00
27294;BME280;14785;52.556;13.430;2022-08-19T01:24:05;100197.75;;;24.68;100.00
27294;BME280;14785;52.556;13.430;2022-08-19T01:26:30;100200.88;;;24.86;100.00
27294;BME280;14785;52.556;13.430;2022-08-19T01:28:58;100194.91;;;24.84;100.00
27294;BME280;14785;52.556;13.430;2022-08-19T01:31:26;100209.66;;;24.93;100.00
27294;BME280;14785;52.556;13.430;2022-08-19T01:33:56;100230.91;;;24.96;100.00
27294;BME280;14785;52.556;13.430;2022-08-19T01:36:25;100219.41;;;24.89;100.00
27294;BME280;14785;52.556;13.430;2022-08-19T01:38:52;100218.47;;;24.74;100.00
27294;BME280;14785;52.556;13.430;2022-08-19T01:41:18;100210.19;;;24.90;100.00
27294;BME280;14785;52.556;13.430;2022-08-19T01:43:44;100200.06;;;24.86;100.00
27294;BME280;14785;52.556;13.430;2022-08-19T01:46:10;100205.47;;;24.81;100.00
27294;BME280;14785;52.556;13.430;2022-08-19T01:48:39;100205.78;;;24.84;100.00
27294;BME280;14785;52.556;13.430;2022-08-19T01:51:06;100214.28;;;24.93;100.00
27294;BME280;14785;52.556;13.430;2022-08-19T01:53:32;100216.78;;;25.04;100.00
27294;BME280;14785;52.556;13.430;2022-08-19T01:55:58;100216.66;;;24.84;100.00
27294;BME280;14785;52.556;13.430;2022-08-19T01:58:31;100206.88;;;24.88;100.00
27294;BME280;14785;52.556;13.430;2022-08-19T02:00:58;100207.94;;;24.82;100.00
27294;BME280;14785;52.556;13.430;2022-08-19T02:03:24;100194.81;;;24.48;100.00
27294;BME280;14785;52.556;13.430;2022-08-19T02:05:57;100193.28;;;24.03;100.00
27294;BME280;14785;52.556;13.430;2022-08-19T02:08:25;100195.22;;;23.65;100.00
27294;BME280;14785;52.556;13.430;2022-08-19T02:10:50;100175.47;;;22.60;100.00
27294;BME280;14785;52.556;13.430;2022-08-19T02:13:16;100187.75;;;21.67;100.00
27294;BME280;14785;52.556;13.430;2022-08-19T02:15:42;100197.72;;;21.15;100.00
27294;BME280;14785;52.556;13.430;2022-08-19T02:18:07;100201.00;;;21.17;100.00
27294;BME280;14785;52.556;13.430;2022-08-19T02:20:34;100187.50;;;21.06;100.00
27294;BME280;14785;52.556;13.430;2022-08-19T02:23:00;100171.75;;;21.03;100.00
27294;BME280;14785;52.556;13.430;2022-08-19T02:25:26;100163.13;;;20.94;100.00
27294;BME280;14785;52.556;13.430;2022-08-19T02:27:52;100158.66;;;20.88;100.00
27294;BME280;14785;52.556;13.430;2022-08-19T02:30:19;100148.59;;;20.95;100.00
27294;BME280;14785;52.556;13.430;2022-08-19T02:32:45;100144.34;;;20.99;100.00
27294;BME280;14785;52.556;13.430;2022-08-19T02:35:11;100144.72;;;21.03;100.00
27294;BME280;14785;52.556;13.430;2022-08-19T02:37:37;100149.50;;;21.12;100.00
27294;BME280;14785;52.556;13.430;2022-08-19T02:40:20;100154.06;;;21.35;90.62
27294;BME280;14785;52.556;13.430;2022-08-19T02:42:46;100176.25;;;21.48;85.17
27294;BME280;14785;52.556;13.430;2022-08-19T02:45:13;100185.66;;;21.57;82.66
27294;BME280;14785;52.556;13.430;2022-08-19T02:47:39;100187.25;;;21.81;82.56
27294;BME280;14785;52.556;13.430;2022-08-19T02:50:05;100174.88;;;21.85;85.30
27294;BME280;14785;52.556;13.430;2022-08-19T02:52:32;100171.19;;;22.03;94.65
27294;BME280;14785;52.556;13.430;2022-08-19T02:54:58;100167.81;;;22.40;100.00
27294;BME280;14785;52.556;13.430;2022-08-19T02:57:23;100173.81;;;22.76;100.00
27294;BME280;14785;52.556;13.430;2022-08-19T02:59:49;100162.97;;;22.76;100.00
27294;BME280;14785;52.556;13.430;2022-08-19T03:02:15;100161.00;;;22.88;100.00
27294;BME280;14785;52.556;13.430;2022-08-19T03:04:41;100163.31;;;22.96;100.00
27294;BME280;14785;52.556;13.430;2022-08-19T03:07:07;100158.69;;;22.80;100.00
27294;BME280;14785;52.556;13.430;2022-08-19T03:09:36;100155.94;;;22.75;100.00
27294;BME280;14785;52.556;13.430;2022-08-19T03:12:03;100156.31;;;22.67;100.00
27294;BME280;14785;52.556;13.430;2022-08-19T03:14:31;100161.84;;;22.72;100.00
27294;BME280;14785;52.556;13.430;2022-08-19T03:16:57;100156.72;;;22.92;100.00
27294;BME280;14785;52.556;13.430;2022-08-19T03:19:22;100151.00;;;22.88;100.00
27294;BME280;14785;52.556;13.430;2022-08-19T03:21:49;100142.09;;;22.93;100.00
27294;BME280;14785;52.556;13.430;2022-08-19T03:24:14;100134.84;;;22.98;100.00
27294;BME280;14785;52.556;13.430;2022-08-19T03:26:43;100123.84;;;23.05;100.00
27294;BME280;14785;52.556;13.430;2022-08-19T03:29:09;100115.25;;;23.13;100.00
27294;BME280;14785;52.556;13.430;2022-08-19T03:31:37;100115.63;;;23.00;100.00
27294;BME280;14785;52.556;13.430;2022-08-19T03:34:03;100115.97;;;22.87;100.00
27294;BME280;14785;52.556;13.430;2022-08-19T03:36:28;100116.13;;;22.97;100.00
27294;BME280;14785;52.556;13.430;2022-08-19T03:38:56;100120.59;;;22.70;100.00
27294;BME280;14785;52.556;13.430;2022-08-19T03:41:35;100123.53;;;22.85;100.00
27294;BME280;14785;52.556;13.430;2022-08-19T03:44:02;100127.47;;;22.94;100.00
27294;BME280;14785;52.556;13.430;2022-08-19T03:46:31;100122.63;;;22.96;100.00
27294;BME280;14785;52.556;13.430;2022-08-19T03:48:58;100127.59;;;23.04;100.00
27294;BME280;14785;52.556;13.430;2022-08-19T03:51:29;100126.94;;;23.13;100.00
27294;BME280;14785;52.556;13.430;2022-08-19T03:53:56;100134.75;;;23.10;100.00
27294;BME280;14785;52.556;13.430;2022-08-19T03:56:22;100126.34;;;23.11;100.00
27294;BME280;14785;52.556;13.430;2022-08-19T03:58:50;100126.03;;;23.24;100.00
27294;BME280;14785;52.556;13.430;2022-08-19T04:01:18;100127.75;;;23.14;100.00
27294;BME280;14785;52.556;13.430;2022-08-19T04:03:44;100121.88;;;23.22;100.00
27294;BME280;14785;52.556;13.430;2022-08-19T04:06:19;100102.34;;;23.20;100.00
27294;BME280;14785;52.556;13.430;2022-08-19T04:08:48;100107.84;;;23.25;100.00
27294;BME280;14785;52.556;13.430;2022-08-19T04:11:20;100113.03;;;23.48;100.00
27294;BME280;14785;52.556;13.430;2022-08-19T04:13:49;100116.16;;;23.40;100.00
27294;BME280;14785;52.556;13.430;2022-08-19T04:16:19;100112.53;;;23.51;100.00
27294;BME280;14785;52.556;13.430;2022-08-19T04:18:46;100119.28;;;23.48;100.00
27294;BME280;14785;52.556;13.430;2022-08-19T04:21:21;100127.91;;;23.67;100.00
27294;BME280;14785;52.556;13.430;2022-08-19T04:23:47;100146.47;;;23.75;100.00
27294;BME280;14785;52.556;13.430;2022-08-19T04:26:14;100134.34;;;23.61;100.00
27294;BME280;14785;52.556;13.430;2022-08-19T04:28:41;100135.44;;;23.38;100.00
27294;BME280;14785;52.556;13.430;2022-08-19T04:31:12;100132.66;;;23.55;100.00
27294;BME280;14785;52.556;13.430;2022-08-19T04:33:38;100139.88;;;23.71;100.00
27294;BME280;14785;52.556;13.430;2022-08-19T04:36:03;100135.88;;;23.73;100.00
27294;BME280;14785;52.556;13.430;2022-08-19T04:38:29;100121.47;;;23.73;100.00
27294;BME280;14785;52.556;13.430;2022-08-19T04:40:54;100121.47;;;23.73;100.00
27294;BME280;14785;52.556;13.430;2022-08-19T04:43:38;100128.94;;;23.87;100.00
27294;BME280;14785;52.556;13.430;2022-08-19T04:46:09;100130.78;;;23.82;100.00
27294;BME280;14785;52.556;13.430;2022-08-19T04:48:36;100123.22;;;23.84;100.00
27294;BME280;14785;52.556;13.430;2022-08-19T04:51:06;100122.31;;;24.00;100.00
27294;BME280;14785;52.556;13.430;2022-08-19T04:53:34;100119.84;;;23.98;100.00
27294;BME280;14785;52.556;13.430;2022-08-19T04:56:07;100124.47;;;23.98;100.00
27294;BME280;14785;52.556;13.430;2022-08-19T04:58:33;100125.97;;;23.89;100.00
27294;BME280;14785;52.556;13.430;2022-08-19T05:00:58;100130.72;;;23.98;100.00
27294;BME280;14785;52.556;13.430;2022-08-19T05:03:25;100127.31;;;24.08;100.00
27294;BME280;14785;52.556;13.430;2022-08-19T05:05:51;100123.03;;;24.17;100.00
27294;BME280;14785;52.556;13.430;2022-08-19T05:08:18;100119.75;;;24.15;100.00
27294;BME280;14785;52.556;13.430;2022-08-19T05:10:46;100115.53;;;24.29;100.00
27294;BME280;14785;52.556;13.430;2022-08-19T05:13:13;100118.66;;;24.16;100.00
27294;BME280;14785;52.556;13.430;2022-08-19T05:15:40;100115.44;;;24.19;100.00
27294;BME280;14785;52.556;13.430;2022-08-19T05:18:06;100124.69;;;24.18;100.00
27294;BME280;14785;52.556;13.430;2022-08-19T05:20:49;100116.34;;;24.29;100.00
27294;BME280;14785;52.556;13.430;2022-08-19T05:23:33;100106.81;;;24.27;100.00
27294;BME280;14785;52.556;13.430;2022-08-19T05:25:59;100099.47;;;24.59;100.00
27294;BME280;14785;52.556;13.430;2022-08-19T05:28:24;100096.19;;;24.57;100.00
27294;BME280;14785;52.556;13.430;2022-08-19T05:30:49;100097.75;;;24.48;100.00
27294;BME280;14785;52.556;13.430;2022-08-19T05:33:17;100098.44;;;24.65;100.00
27294;BME280;14785;52.556;13.430;2022-08-19T05:35:42;100093.50;;;24.62;100.00
27294;BME280;14785;52.556;13.430;2022-08-19T05:38:10;100089.78;;;24.73;100.00
27294;BME280;14785;52.556;13.430;2022-08-19T05:40:38;100088.16;;;24.72;100.00
27294;BME280;14785;52.556;13.430;2022-08-19T05:43:06;100081.16;;;24.81;100.00
27294;BME280;14785;52.556;13.430;2022-08-19T05:45:32;100068.44;;;24.97;100.00
27294;BME280;14785;52.556;13.430;2022-08-19T05:48:02;100079.09;;;25.03;100.00
27294;BME280;14785;52.556;13.430;2022-08-19T05:50:28;100090.53;;;25.10;100.00
27294;BME280;14785;52.556;13.430;2022-08-19T05:52:53;100101.44;;;25.05;100.00
27294;BME280;14785;52.556;13.430;2022-08-19T05:55:18;100097.66;;;25.11;100.00
27294;BME280;14785;52.556;13.430;2022-08-19T05:57:45;100101.69;;;25.04;100.00
27294;BME280;14785;52.556;13.430;2022-08-19T06:00:12;100097.06;;;25.04;100.00
27294;BME280;14785;52.556;13.430;2022-08-19T06:02:38;100085.38;;;25.04;100.00
27294;BME280;14785;52.556;13.430;2022-08-19T06:05:04;100084.66;;;25.23;100.00
27294;BME280;14785;52.556;13.430;2022-08-19T06:07:32;100102.03;;;25.17;100.00
27294;BME280;14785;52.556;13.430;2022-08-19T06:09:58;100104.50;;;25.24;100.00
27294;BME280;14785;52.556;13.430;2022-08-19T06:12:23;100114.59;;;25.28;100.00
27294;BME280;14785;52.556;13.430;2022-08-19T06:14:53;100113.31;;;25.36;100.00
27294;BME280;14785;52.556;13.430;2022-08-19T06:17:19;100122.38;;;25.56;100.00
27294;BME280;14785;52.556;13.430;2022-08-19T06:19:46;100121.81;;;25.44;100.00
27294;BME280;14785;52.556;13.430;2022-08-19T06:22:11;100124.41;;;25.29;100.00
27294;BME280;14785;52.556;13.430;2022-08-19T06:24:38;100112.44;;;25.30;100.00
27294;BME280;14785;52.556;13.430;2022-08-19T06:27:03;100112.59;;;25.60;100.00
27294;BME280;14785;52.556;13.430;2022-08-19T06:29:30;100113.09;;;25.47;100.00
27294;BME280;14785;52.556;13.430;2022-08-19T06:31:57;100105.00;;;25.77;100.00
27294;BME280;14785;52.556;13.430;2022-08-19T06:34:24;100112.28;;;25.47;100.00
27294;BME280;14785;52.556;13.430;2022-08-19T06:36:50;100114.72;;;25.48;100.00
27294;BME280;14785;52.556;13.430;2022-08-19T06:39:25;100118.31;;;25.59;100.00
27294;BME280;14785;52.556;13.430;2022-08-19T06:41:55;100117.03;;;25.91;100.00
27294;BME280;14785;52.556;13.430;2022-08-19T06:44:24;100102.91;;;25.99;100.00
27294;BME280;14785;52.556;13.430;2022-08-19T06:46:52;100109.19;;;26.05;100.00
27294;BME280;14785;52.556;13.430;2022-08-19T06:49:18;100118.16;;;26.10;100.00
27294;BME280;14785;52.556;13.430;2022-08-19T06:51:46;100133.44;;;26.17;100.00
27294;BME280;14785;52.556;13.430;2022-08-19T06:54:17;100134.28;;;26.17;100.00
27294;BME280;14785;52.556;13.430;2022-08-19T06:56:43;100144.09;;;26.18;100.00
27294;BME280;14785;52.556;13.430;2022-08-19T06:59:13;100141.09;;;26.20;100.00
27294;BME280;14785;52.556;13.430;2022-08-19T07:01:45;100136.94;;;25.97;100.00
27294;BME280;14785;52.556;13.430;2022-08-19T07:04:16;100136.19;;;26.22;100.00
27294;BME280;14785;52.556;13.430;2022-08-19T07:06:43;100147.63;;;26.08;100.00
27294;BME280;14785;52.556;13.430;2022-08-19T07:09:09;100149.75;;;25.96;100.00
27294;BME280;14785;52.556;13.430;2022-08-19T07:11:35;100149.53;;;26.08;100.00
27294;BME280;14785;52.556;13.430;2022-08-19T07:14:01;100156.91;;;26.18;100.00
27294;BME280;14785;52.556;13.430;2022-08-19T07:16:27;100164.53;;;26.26;100.00
27294;BME280;14785;52.556;13.430;2022-08-19T07:18:53;100167.81;;;26.18;100.00
27294;BME280;14785;52.556;13.430;2022-08-19T07:21:22;100163.47;;;26.32;100.00
27294;BME280;14785;52.556;13.430;2022-08-19T07:23:49;100159.66;;;26.38;100.00
27294;BME280;14785;52.556;13.430;2022-08-19T07:26:20;100153.09;;;26.29;100.00
27294;BME280;14785;52.556;13.430;2022-08-19T07:28:47;100145.47;;;26.31;100.00
27294;BME280;14785;52.556;13.430;2022-08-19T07:31:15;100151.50;;;26.33;100.00
27294;BME280;14785;52.556;13.430;2022-08-19T07:33:42;100145.75;;;26.44;100.00
27294;BME280;14785;52.556;13.430;2022-08-19T07:36:09;100156.94;;;26.43;100.00
27294;BME280;14785;52.556;13.430;2022-08-19T07:38:37;100146.31;;;26.41;100.00
27294;BME280;14785;52.556;13.430;2022-08-19T07:41:05;100160.78;;;26.57;100.00
27294;BME280;14785;52.556;13.430;2022-08-19T07:43:30;100169.22;;;26.55;100.00
27294;BME280;14785;52.556;13.430;2022-08-19T07:45:56;100171.69;;;26.52;100.00
27294;BME280;14785;52.556;13.430;2022-08-19T07:48:26;100171.72;;;26.67;100.00
27294;BME280;14785;52.556;13.430;2022-08-19T07:50:55;100178.22;;;26.51;100.00
27294;BME280;14785;52.556;13.430;2022-08-19T07:53:22;100178.22;;;26.61;100.00
27294;BME280;14785;52.556;13.430;2022-08-19T07:55:47;100174.94;;;26.44;100.00
27294;BME280;14785;52.556;13.430;2022-08-19T07:58:16;100180.91;;;26.26;100.00
27294;BME280;14785;52.556;13.430;2022-08-19T08:00:43;100187.22;;;26.41;100.00
27294;BME280;14785;52.556;13.430;2022-08-19T08:03:12;100181.53;;;26.63;100.00
27294;BME280;14785;52.556;13.430;2022-08-19T08:05:41;100185.31;;;26.57;100.00
27294;BME280;14785;52.556;13.430;2022-08-19T08:08:26;100188.06;;;26.57;100.00
27294;BME280;14785;52.556;13.430;2022-08-19T08:11:11;100186.91;;;26.23;100.00
27294;BME280;14785;52.556;13.430;2022-08-19T08:13:37;100194.56;;;26.41;100.00
27294;BME280;14785;52.556;13.430;2022-08-19T08:16:03;100199.22;;;26.60;100.00
27294;BME280;14785;52.556;13.430;2022-08-19T08:18:29;100193.78;;;26.70;100.00
27294;BME280;14785;52.556;13.430;2022-08-19T08:20:55;100210.72;;;26.92;100.00
27294;BME280;14785;52.556;13.430;2022-08-19T08:23:20;100204.41;;;27.17;100.00
27294;BME280;14785;52.556;13.430;2022-08-19T08:25:51;100219.03;;;26.05;100.00
27294;BME280;14785;52.556;13.430;2022-08-19T08:28:18;100208.16;;;26.26;100.00
27294;BME280;14785;52.556;13.430;2022-08-19T08:30:45;100220.22;;;26.50;100.00
27294;BME280;14785;52.556;13.430;2022-08-19T08:33:13;100215.91;;;26.74;100.00
27294;BME280;14785;52.556;13.430;2022-08-19T08:35:40;100219.19;;;26.71;100.00
27294;BME280;14785;52.556;13.430;2022-08-19T08:38:07;100231.00;;;26.04;100.00
27294;BME280;14785;52.556;13.430;2022-08-19T08:43:21;100248.75;;;25.50;100.00
27294;BME280;14785;52.556;13.430;2022-08-19T08:45:53;100253.69;;;25.22;100.00
27294;BME280;14785;52.556;13.430;2022-08-19T08:48:34;100252.75;;;24.48;100.00
27294;BME280;14785;52.556;13.430;2022-08-19T08:51:04;100266.91;;;24.02;100.00
27294;BME280;14785;52.556;13.430;2022-08-19T08:53:32;100262.78;;;24.69;100.00
27294;BME280;14785;52.556;13.430;2022-08-19T08:56:02;100260.28;;;24.41;100.00
27294;BME280;14785;52.556;13.430;2022-08-19T08:58:39;100257.75;;;24.34;100.00
27294;BME280;14785;52.556;13.430;2022-08-19T09:01:11;100269.03;;;24.00;100.00
27294;BME280;14785;52.556;13.430;2022-08-19T09:03:39;100265.41;;;23.94;100.00
27294;BME280;14785;52.556;13.430;2022-08-19T09:14:08;100275.00;;;23.80;100.00
27294;BME280;14785;52.556;13.430;2022-08-19T09:16:37;100276.84;;;23.75;100.00
27294;BME280;14785;52.556;13.430;2022-08-19T09:19:06;100273.13;;;24.02;100.00
27294;BME280;14785;52.556;13.430;2022-08-19T09:21:32;100251.22;;;24.09;100.00
27294;BME280;14785;52.556;13.430;2022-08-19T09:24:00;100258.03;;;23.90;100.00
27294;BME280;14785;52.556;13.430;2022-08-19T09:26:25;100258.78;;;24.07;100.00
27294;BME280;14785;52.556;13.430;2022-08-19T09:28:52;100260.81;;;23.95;100.00
27294;BME280;14785;52.556;13.430;2022-08-19T09:31:21;100251.16;;;24.04;100.00
27294;BME280;14785;52.556;13.430;2022-08-19T09:33:48;100242.72;;;24.27;100.00
27294;BME280;14785;52.556;13.430;2022-08-19T09:36:15;100236.56;;;24.63;100.00
27294;BME280;14785;52.556;13.430;2022-08-19T09:38:41;100242.72;;;24.27;100.00
27294;BME280;14785;52.556;13.430;2022-08-19T09:41:11;100241.00;;;24.69;100.00
27294;BME280;14785;52.556;13.430;2022-08-19T09:43:38;100251.25;;;24.62;100.00
27294;BME280;14785;52.556;13.430;2022-08-19T09:46:05;100241.09;;;24.79;100.00
27294;BME280;14785;52.556;13.430;2022-08-19T09:48:32;100237.47;;;25.00;100.00
27294;BME280;14785;52.556;13.430;2022-08-19T09:51:08;100225.75;;;25.00;100.00
27294;BME280;14785;52.556;13.430;2022-08-19T09:53:34;100227.13;;;25.34;100.00
27294;BME280;14785;52.556;13.430;2022-08-19T09:56:00;100212.81;;;25.58;100.00
27294;BME280;14785;52.556;13.430;2022-08-19T09:58:26;100208.22;;;26.41;100.00
27294;BME280;14785;52.556;13.430;2022-08-19T10:00:57;100211.25;;;26.99;100.00
27294;BME280;14785;52.556;13.430;2022-08-19T10:03:23;100210.69;;;27.17;100.00
27294;BME280;14785;52.556;13.430;2022-08-19T10:05:49;100210.13;;;26.40;100.00
27294;BME280;14785;52.556;13.430;2022-08-19T10:08:44;100223.41;;;26.06;100.00
27294;BME280;14785;52.556;13.430;2022-08-19T10:11:10;100224.31;;;25.65;100.00
27294;BME280;14785;52.556;13.430;2022-08-19T10:13:35;100223.00;;;25.88;100.00
27294;BME280;14785;52.556;13.430;2022-08-19T10:16:07;100227.09;;;25.85;100.00
27294;BME280;14785;52.556;13.430;2022-08-19T10:18:33;100218.03;;;26.37;100.00
27294;BME280;14785;52.556;13.430;2022-08-19T10:21:08;100225.28;;;26.06;100.00
27294;BME280;14785;52.556;13.430;2022-08-19T10:23:36;100213.88;;;25.52;100.00
27294;BME280;14785;52.556;13.430;2022-08-19T10:26:04;100226.13;;;25.13;100.00
27294;BME280;14785;52.556;13.430;2022-08-19T10:28:31;100227.75;;;24.51;100.00
27294;BME280;14785;52.556;13.430;2022-08-19T10:30:56;100235.22;;;24.92;100.00
27294;BME280;14785;52.556;13.430;2022-08-19T10:33:22;100225.84;;;25.10;100.00
27294;BME280;14785;52.556;13.430;2022-08-19T10:35:47;100222.59;;;25.13;100.00
27294;BME280;14785;52.556;13.430;2022-08-19T10:38:12;100225.22;;;25.03;100.00
27294;BME280;14785;52.556;13.430;2022-08-19T10:40:38;100229.69;;;24.82;100.00
27294;BME280;14785;52.556;13.430;2022-08-19T10:43:03;100217.72;;;24.83;100.00
27294;BME280;14785;52.556;13.430;2022-08-19T10:45:28;100218.47;;;25.05;100.00
27294;BME280;14785;52.556;13.430;2022-08-19T10:47:54;100212.81;;;25.53;100.00
27294;BME280;14785;52.556;13.430;2022-08-19T10:50:19;100210.16;;;25.73;100.00
27294;BME280;14785;52.556;13.430;2022-08-19T10:53:08;100197.47;;;25.99;100.00
27294;BME280;14785;52.556;13.430;2022-08-19T10:55:34;100187.44;;;26.20;100.00
27294;BME280;14785;52.556;13.430;2022-08-19T10:58:19;100203.41;;;25.91;100.00
27294;BME280;14785;52.556;13.430;2022-08-19T11:00:56;100206.91;;;25.76;100.00
27294;BME280;14785;52.556;13.430;2022-08-19T11:03:24;100216.66;;;25.62;100.00
27294;BME280;14785;52.556;13.430;2022-08-19T11:06:04;100213.88;;;24.79;100.00
27294;BME280;14785;52.556;13.430;2022-08-19T11:08:30;100213.56;;;24.76;100.00
27294;BME280;14785;52.556;13.430;2022-08-19T11:10:59;100220.41;;;24.78;100.00
27294;BME280;14785;52.556;13.430;2022-08-19T11:13:31;100229.88;;;25.02;100.00
27294;BME280;14785;52.556;13.430;2022-08-19T11:16:04;100240.13;;;24.95;100.00
27294;BME280;14785;52.556;13.430;2022-08-19T11:18:30;100228.97;;;24.92;100.00
27294;BME280;14785;52.556;13.430;2022-08-19T11:21:05;100230.91;;;24.96;100.00
27294;BME280;14785;52.556;13.430;2022-08-19T11:23:31;100229.75;;;24.92;100.00
27294;BME280;14785;52.556;13.430;2022-08-19T11:25:56;100237.00;;;25.08;100.00
27294;BME280;14785;52.556;13.430;2022-08-19T11:28:22;100235.94;;;25.14;100.00
27294;BME280;14785;52.556;13.430;2022-08-19T11:30:47;100258.28;;;24.10;100.00
27294;BME280;14785;52.556;13.430;2022-08-19T11:33:12;100241.59;;;24.76;100.00
27294;BME280;14785;52.556;13.430;2022-08-19T11:35:39;100246.59;;;24.58;100.00
27294;BME280;14785;52.556;13.430;2022-08-19T11:38:05;100238.84;;;24.71;100.00
27294;BME280;14785;52.556;13.430;2022-08-19T11:40:30;100253.81;;;24.47;100.00
27294;BME280;14785;52.556;13.430;2022-08-19T11:42:56;100245.19;;;24.55;100.00
27294;BME280;14785;52.556;13.430;2022-08-19T11:45:23;100257.53;;;23.93;100.00
27294;BME280;14785;52.556;13.430;2022-08-19T11:47:48;100266.97;;;23.69;100.00
27294;BME280;14785;52.556;13.430;2022-08-19T11:50:15;100272.59;;;23.62;100.00
27294;BME280;14785;52.556;13.430;2022-08-19T11:52:40;100277.22;;;23.83;100.00
27294;BME280;14785;52.556;13.430;2022-08-19T11:55:06;100273.38;;;23.79;100.00
27294;BME280;14785;52.556;13.430;2022-08-19T11:57:32;100280.88;;;24.37;100.00
27294;BME280;14785;52.556;13.430;2022-08-19T11:59:57;100271.78;;;24.48;100.00
27294;BME280;14785;52.556;13.430;2022-08-19T12:02:23;100264.22;;;24.55;100.00
27294;BME280;14785;52.556;13.430;2022-08-19T12:04:48;100270.13;;;25.00;100.00
27294;BME280;14785;52.556;13.430;2022-08-19T12:07:14;100267.06;;;25.28;100.00
27294;BME280;14785;52.556;13.430;2022-08-19T12:09:39;100260.56;;;24.66;100.00
27294;BME280;14785;52.556;13.430;2022-08-19T12:12:05;100272.91;;;24.52;100.00
27294;BME280;14785;52.556;13.430;2022-08-19T12:14:30;100272.50;;;24.92;100.00
27294;BME280;14785;52.556;13.430;2022-08-19T12:16:57;100268.50;;;25.04;100.00
27294;BME280;14785;52.556;13.430;2022-08-19T12:19:23;100273.59;;;25.27;100.00
27294;BME280;14785;52.556;13.430;2022-08-19T12:21:50;100272.13;;;24.83;100.00
27294;BME280;14785;52.556;13.430;2022-08-19T12:24:16;100269.66;;;25.13;100.00
27294;BME280;14785;52.556;13.430;2022-08-19T12:26:48;100266.66;;;25.46;100.00
27294;BME280;14785;52.556;13.430;2022-08-19T12:29:13;100275.31;;;25.33;100.00
27294;BME280;14785;52.556;13.430;2022-08-19T12:31:39;100279.75;;;25.13;100.00
27294;BME280;14785;52.556;13.430;2022-08-19T12:34:04;100274.00;;;25.09;100.00
27294;BME280;14785;52.556;13.430;2022-08-19T12:36:29;100279.56;;;24.93;100.00
27294;BME280;14785;52.556;13.430;2022-08-19T12:38:58;100282.56;;;24.91;100.00
27294;BME280;14785;52.556;13.430;2022-08-19T12:41:25;100277.22;;;24.75;100.00
27294;BME280;14785;52.556;13.430;2022-08-19T12:43:50;100284.75;;;24.94;100.00